Πλησιέστερες Αναφορές METAR

 

LGTS - Thessaloniki/Makedonia-Elev 7m
Απόσταση από σταθμό: Ν 13km
Ενημερώθηκε: 10/05/2021 21:50
Αίθριος
Αίθριος
 Ανεμοι από μεταβλητός
Ανεμος: μεταβλητός 6 km/h
Θερμοκρασία: 15°C
Σημείο Δρόσου: 11°C
Υγρασία: 77%
Βαρόμετρο: 1019 hPa
Περίληψη: Αίθριος
Ορατότητα: πάνω από 10 km
2021/05/10 18:50 LGTS 101850Z VRB03KT CAVOK 15/11 Q1019 NOSIG
LGAV - Athens/Elef. Venizelos-Elev 94m
Απόσταση από σταθμό: ΝΝΑ 312km
Ενημερώθηκε: 10/05/2021 22:20
Αίθριος
Αίθριος
 Ανεμοι από ΒΒΑ
Ανεμος: ΒΒΑ 17 km/h
Θερμοκρασία: 17°C
Σημείο Δρόσου: -1°C
Υγρασία: 30%
Βαρόμετρο: 1018 hPa
Περίληψη: Αίθριος
Ορατότητα: πάνω από 10 km
2021/05/10 19:20 LGAV 101920Z 03009KT CAVOK 17/M01 Q1018 NOSIG
 
LGAL - Alexandroupolis-Elev 3m
Απόσταση από σταθμό: Α 251km
Ενημερώθηκε: 10/05/2021 21:20
Αίθριος
Αίθριος
 Ανεμοι από ΒΑ
Ανεμος: ΒΑ 15 km/h
Θερμοκρασία: 17°C
Σημείο Δρόσου: 3°C
Υγρασία: 39%
Βαρόμετρο: 1019 hPa
Περίληψη: Αίθριος
Ορατότητα: πάνω από 10 km
2021/05/10 18:20 LGAL 101820Z 05008KT CAVOK 17/03 Q1019
LGKV - Kavala/Crysoupolis-Elev 5m
Απόσταση από σταθμό: ΑΒΑ 144km
Ενημερώθηκε: 10/05/2021 21:20
Αίθριος
Αίθριος
 Ανεμοι από Δ
Ανεμος: Δ 6 km/h
Θερμοκρασία: 16°C
Σημείο Δρόσου: 9°C
Υγρασία: 63%
Βαρόμετρο: 1019 hPa
Περίληψη: Αίθριος
Ορατότητα: πάνω από 10 km
2021/05/10 18:20 LGKV 101820Z 26003KT CAVOK 16/09 Q1019
 
LGSK - Skiathos Island-Elev 15m
Απόσταση από σταθμό: ΝΝΑ 168km
Ενημερώθηκε: 10/05/2021 12:50
ΜΗ Ενημερωμένο METAR!
Διάσπαρτα Νέφη
Διάσπαρτα Νέφη
 Ανεμοι από ΒΒΑ
Ανεμος: ΒΒΑ 15 km/h
Θερμοκρασία: 18°C
Σημείο Δρόσου: 11°C
Υγρασία: 64%
Βαρόμετρο: 1023 hPa
Νέφωση: Διάσπαρτα Νέφη
Ορατότητα: 10 km
Λεπτομέρειες Νεφών: Διάσπαρτα Νέφη 610 m
2021/05/10 09:50 LGSK 100950Z 02008KT 9999 FEW020 18/11 Q1023
LGLM - Limnos Island-Elev 5m
Απόσταση από σταθμό: ΑΝΑ 210km
Ενημερώθηκε: 10/05/2021 21:50
Αίθριος
Αίθριος
 Ανεμοι από άπνοια
Ανεμος: άπνοια
Θερμοκρασία: 15°C
Σημείο Δρόσου: 10°C
Υγρασία: 72%
Βαρόμετρο: 1018 hPa
Περίληψη: Αίθριος
Ορατότητα: πάνω από 10 km
2021/05/10 18:50 LGLM 101850Z 00000KT CAVOK 15/10 Q1018
 
LGMT - Mitilini Island-Elev 17m
Απόσταση από σταθμό: ΑΝΑ 358km
Ενημερώθηκε: 10/05/2021 21:50
Αίθριος
Αίθριος
 Ανεμοι από Δ
Ανεμος: Δ 11 km/h
Θερμοκρασία: 18°C
Σημείο Δρόσου: 8°C
Υγρασία: 52%
Βαρόμετρο: 1016 hPa
Περίληψη: Αίθριος
Ορατότητα: πάνω από 10 km
2021/05/10 18:50 LGMT 101850Z 27006KT CAVOK 18/08 Q1016
LGSY - Skiros Island-Elev 15m
Απόσταση από σταθμό: ΝΑ 227km
Ενημερώθηκε: 10/05/2021 20:50
ΜΗ Ενημερωμένο METAR!
Αίθριος
Αίθριος
 Ανεμοι από ΒΔ
Ανεμος: ΒΔ 15 km/h
Θερμοκρασία: 16°C
Σημείο Δρόσου: 11°C
Υγρασία: 72%
Βαρόμετρο: 1018 hPa
Περίληψη: Αίθριος
Ορατότητα: πάνω από 10 km
2021/05/10 17:50 LGSY 101750Z 32008KT CAVOK 16/11 Q1018 BLU
 
LGKZ - Kozani-Elev 628m
Απόσταση από σταθμό: ΔΝΔ 102km
Ενημερώθηκε: 10/05/2021 21:50

 Ανεμοι από μεταβλητός
Ανεμος: μεταβλητός 4 km/h
Θερμοκρασία: 15°C
Σημείο Δρόσου: 9°C
Υγρασία: 68%
Βαρόμετρο: 1020 hPa
2021/05/10 18:50 LGKZ 101850Z AUTO VRB02KT //// // ////// 15/09 Q1020 RE//
LGIO - Ioannina-Elev 476m
Απόσταση από σταθμό: ΔΝΔ 209km
Ενημερώθηκε: 10/05/2021 21:50

 Ανεμοι από μεταβλητός
Ανεμος: μεταβλητός 2 km/h
Θερμοκρασία: 18°C
Σημείο Δρόσου: 13°C
Υγρασία: 73%
Βαρόμετρο: 1018 hPa
2021/05/10 18:50 LGIO 101850Z AUTO VRB01KT //// // ////// 18/13 Q1018 RE//
 
LGZA - Zakinthos-Elev 3m
Απόσταση από σταθμό: ΝΝΔ 367km
Ενημερώθηκε: 10/05/2021 20:50
ΜΗ Ενημερωμένο METAR!
Αίθριος
Αίθριος
 Ανεμοι από άπνοια
Ανεμος: άπνοια
Θερμοκρασία: 21°C
Σημείο Δρόσου: 14°C
Υγρασία: 64%
Βαρόμετρο: 1017 hPa
Περίληψη: Αίθριος
Ορατότητα: πάνω από 10 km
2021/05/10 17:50 LGZA 101750Z 00000KT CAVOK 21/14 Q1017
LGKR - Corfu Island-Elev 2m
Απόσταση από σταθμό: ΔΝΔ 282km
Ενημερώθηκε: 10/05/2021 22:20
Αίθριος
Αίθριος
 Ανεμοι από Δ
Ανεμος: Δ 6 km/h
Θερμοκρασία: 19°C
Σημείο Δρόσου: 15°C
Υγρασία: 78%
Βαρόμετρο: 1016 hPa
Περίληψη: Αίθριος
Ορατότητα: πάνω από 10 km
2021/05/10 19:20 LGKR 101920Z 26003KT CAVOK 19/15 Q1016 NOSIG
 
LGSO - Syros Island-Elev 72m
Απόσταση από σταθμό: ΝΝΑ 397km
Ενημερώθηκε: 10/05/2021 20:50
ΜΗ Ενημερωμένο METAR!
Αίθριος
Αίθριος
 Ανεμοι από Β
Ανεμος: Β 33 km/h, Ριπή: 52 km/h
Θερμοκρασία: 17°C
Σημείο Δρόσου: 6°C
Υγρασία: 49%
Βαρόμετρο: 1016 hPa
Περίληψη: Αίθριος
Ορατότητα: πάνω από 10 km
2021/05/10 17:50 LGSO 101750Z 36018G28KT CAVOK 17/06 Q1016
LGMK - Mikonos Island-Elev 123m
Απόσταση από σταθμό: ΝΝΑ 412km
Ενημερώθηκε: 10/05/2021 21:50
Αίθριος
Αίθριος
 Ανεμοι από Β
Ανεμος: Β 48 km/h
Θερμοκρασία: 16°C
Σημείο Δρόσου: 9°C
Υγρασία: 63%
Βαρόμετρο: 1015 hPa
Περίληψη: Αίθριος
Ορατότητα: πάνω από 10 km
2021/05/10 18:50 LGMK 101850Z 35026KT CAVOK 16/09 Q1015
 
LGSR - Santorini Island-Elev 40m
Απόσταση από σταθμό: ΝΝΑ 520km
Ενημερώθηκε: 10/05/2021 20:50
ΜΗ Ενημερωμένο METAR!
Διάσπαρτα Νέφη
Διάσπαρτα Νέφη
 Ανεμοι από Β
Ανεμος: Β 37 km/h
Θερμοκρασία: 17°C
Σημείο Δρόσου: 12°C
Υγρασία: 73%
Βαρόμετρο: 1015 hPa
Νέφωση: Διάσπαρτα Νέφη
Ορατότητα: 10 km
Λεπτομέρειες Νεφών: Διάσπαρτα Νέφη 762 m
2021/05/10 17:50 LGSR 101750Z 35020KT 9999 FEW025 17/12 Q1015
LGKL - Kalamata-Elev 8m
Απόσταση από σταθμό: Ν 405km
Ενημερώθηκε: 10/05/2021 21:50

 Ανεμοι από μεταβλητός
Ανεμος: μεταβλητός 2 km/h
Θερμοκρασία: 16°C
Σημείο Δρόσου: 13°C
Υγρασία: 83%
Βαρόμετρο: 1017 hPa
2021/05/10 18:50 LGKL 101850Z AUTO VRB01KT //// // ////// 16/13 Q1017 RE//
 
LGIR - Iraklion/Crete-Elev 5m
Απόσταση από σταθμό: ΝΝΑ 622km
Ενημερώθηκε: 10/05/2021 22:20
Αίθριος
Αίθριος
 Ανεμοι από ΔΒΔ
Ανεμος: ΔΒΔ 22 km/h
Θερμοκρασία: 18°C
Σημείο Δρόσου: 11°C
Υγρασία: 64%
Βαρόμετρο: 1016 hPa
Περίληψη: Αίθριος
Ορατότητα: πάνω από 10 km
2021/05/10 19:20 LGIR 101920Z 30012KT CAVOK 18/11 Q1016 NOSIG
LGRP - Rhodes-Elev 5m
Απόσταση από σταθμό: ΝΑ 649km
Ενημερώθηκε: 10/05/2021 22:20
Αίθριος
Αίθριος
 Ανεμοι από ΝΔ
Ανεμος: ΝΔ 19 km/h
Θερμοκρασία: 20°C
Σημείο Δρόσου: 11°C
Υγρασία: 56%
Βαρόμετρο: 1010 hPa
Περίληψη: Αίθριος
Ορατότητα: πάνω από 10 km
2021/05/10 19:20 LGRP 101920Z 22010KT CAVOK 20/11 Q1010 NOSIG
 
LWOH - Ohrid/FYROM-Elev 761m
Απόσταση από σταθμό: ΔΒΔ 188km
Ενημερώθηκε: 10/05/2021 16:30
ΜΗ Ενημερωμένο METAR!
Διάσπαρτα Νέφη
Διάσπαρτα Νέφη
 Ανεμοι από Ν
Ανεμος: Ν 6 km/h
Θερμοκρασία: 21°C
Σημείο Δρόσου: 12°C
Υγρασία: 57%
Βαρόμετρο: 1019 hPa
Νέφωση: Διάσπαρτα Νέφη
Ορατότητα: 10 km
Λεπτομέρειες Νεφών: Διάσπαρτα Νέφη 1219 m
2021/05/10 13:30 LWOH 101330Z 19003KT 9999 FEW040 21/12 Q1019
LBSF - Sofia/Bulgaria-Elev 595m
Απόσταση από σταθμό: Β 227km
Ενημερώθηκε: 10/05/2021 22:00
Αίθριος
Αίθριος
 Ανεμοι από Α
Ανεμος: Α 20 km/h
Θερμοκρασία: 14°C
Σημείο Δρόσου: 7°C
Υγρασία: 63%
Βαρόμετρο: 1020 hPa
Περίληψη: Αίθριος
Ορατότητα: πάνω από 10 km
2021/05/10 19:00 LBSF 101900Z 10011KT CAVOK 14/07 Q1020 NOSIG